Terminal Aerodrome Forecast
Issued by NWS

Home | Current Version | Previous Version | Graphics & Text | Print | Product List | Glossary On
Versions: 1 2 3 4 5 6 7 8 9 10 11 12 13 14 15
000
FTUS45 KGGW 271700
TAFSDY
TAF
KSDY 271730Z 2718/2818 13007KT P6SM VCTS SCT060CB BKN090
      TEMPO 2719/2722 4SM -TSRA SCT050CB BKN080
     FM280600 VRB04KT P6SM VCSH SCT090 BKN120
     FM281000 VRB06KT 6SM BR FEW005 SCT150
      AMD LTD TO CLD VIS AND WIND=

USA.gov is the U.S. government's official web portal to all federal, state and local government web resources and services.